createdAt,value
2023-05-22T00:00:08.304Z,72.17
2023-05-22T00:00:18.286Z,72.17
2023-05-22T00:00:28.288Z,72.17
2023-05-22T00:00:38.412Z,71.87
2023-05-22T00:00:48.283Z,71.87
2023-05-22T00:00:58.281Z,71.77
2023-05-22T00:01:08.284Z,71.77
2023-05-22T00:01:18.285Z,71.77
2023-05-22T00:01:38.310Z,71.67
2023-05-22T00:01:48.317Z,71.57
2023-05-22T00:01:58.309Z,71.44
2023-05-22T00:02:08.379Z,71.23
2023-05-22T00:02:18.330Z,71.13
2023-05-22T00:02:28.424Z,71.03
2023-05-22T00:02:48.432Z,70.62
2023-05-22T00:02:58.341Z,70.39
2023-05-22T00:03:08.302Z,70.19
2023-05-22T00:03:18.322Z,69.99
2023-05-22T00:03:28.318Z,69.79
2023-05-22T00:03:38.299Z,69.79
2023-05-22T00:03:58.293Z,69.68
2023-05-22T00:04:08.312Z,69.68
2023-05-22T00:04:18.302Z,69.59
2023-05-22T00:04:28.306Z,69.59
2023-05-22T00:04:38.355Z,69.48
2023-05-22T00:04:48.316Z,69.59
2023-05-22T00:04:58.347Z,69.59
2023-05-22T00:05:18.414Z,69.59
2023-05-22T00:05:28.404Z,69.59
2023-05-22T00:05:38.350Z,69.68
2023-05-22T00:05:48.312Z,69.79
2023-05-22T00:05:58.306Z,69.89
2023-05-22T00:06:08.302Z,69.99
2023-05-22T00:06:18.306Z,69.99
2023-05-22T00:06:38.300Z,69.99
2023-05-22T00:06:48.303Z,69.99
2023-05-22T00:06:58.303Z,69.99
2023-05-22T00:07:08.302Z,69.99
2023-05-22T00:07:18.316Z,70.09
2023-05-22T00:07:28.336Z,70.09
2023-05-22T00:07:38.331Z,70.19
2023-05-22T00:07:48.319Z,70.29
2023-05-22T00:07:58.313Z,70.29
2023-05-22T00:08:08.308Z,70.39
2023-05-22T00:08:18.319Z,70.39
2023-05-22T00:08:29.721Z,70.49
2023-05-22T00:08:48.326Z,70.62
2023-05-22T00:08:58.312Z,70.73
2023-05-22T00:09:08.322Z,70.73
2023-05-22T00:09:18.326Z,70.73
2023-05-22T00:09:28.321Z,70.83
2023-05-22T00:09:38.317Z,70.93
2023-05-22T00:09:58.331Z,70.93
2023-05-22T00:10:08.319Z,71.03
2023-05-22T00:10:18.317Z,71.03
2023-05-22T00:10:28.315Z,71.13
2023-05-22T00:10:38.493Z,71.13
2023-05-22T00:10:48.318Z,71.13
2023-05-22T00:11:08.323Z,71.13
2023-05-22T00:11:18.323Z,71.13
2023-05-22T00:11:28.320Z,71.23
2023-05-22T00:11:38.318Z,71.13
2023-05-22T00:11:48.340Z,71.13
2023-05-22T00:11:58.320Z,71.03
2023-05-22T00:12:08.329Z,70.93
2023-05-22T00:12:18.325Z,70.93
2023-05-22T00:12:28.318Z,70.93
2023-05-22T00:12:38.322Z,70.93
2023-05-22T00:12:58.321Z,70.93
2023-05-22T00:13:08.341Z,70.83
2023-05-22T00:13:18.336Z,70.59
2023-05-22T00:13:28.328Z,70.49
2023-05-22T00:13:38.325Z,70.29
2023-05-22T00:13:48.324Z,70.19
2023-05-22T00:13:58.336Z,70.09
2023-05-22T00:14:18.336Z,69.79
2023-05-22T00:14:28.365Z,69.59
2023-05-22T00:14:38.339Z,69.48
2023-05-22T00:14:48.331Z,69.35
2023-05-22T00:14:58.332Z,69.35
2023-05-22T00:15:08.352Z,69.35
2023-05-22T00:15:28.333Z,69.15
2023-05-22T00:15:38.349Z,69.15
2023-05-22T00:15:48.348Z,69.05
2023-05-22T00:15:58.363Z,69.05
2023-05-22T00:16:08.340Z,69.05
2023-05-22T00:16:18.349Z,69.15
2023-05-22T00:16:28.380Z,69.15
2023-05-22T00:16:48.599Z,69.15
2023-05-22T00:16:58.523Z,69.25
2023-05-22T00:17:08.413Z,69.35
2023-05-22T00:17:18.510Z,69.35
2023-05-22T00:17:28.377Z,69.35
2023-05-22T00:17:38.365Z,69.35
2023-05-22T00:17:48.373Z,69.35
2023-05-22T00:17:58.386Z,69.45
2023-05-22T00:18:18.355Z,69.59
2023-05-22T00:18:28.354Z,69.45
2023-05-22T00:18:38.344Z,69.45
2023-05-22T00:18:48.397Z,69.45
2023-05-22T00:18:58.398Z,69.45
2023-05-22T00:19:08.368Z,69.48
2023-05-22T00:19:18.419Z,69.48
2023-05-22T00:19:28.382Z,69.59
2023-05-22T00:19:38.400Z,69.55
2023-05-22T00:19:48.350Z,69.48
2023-05-22T00:20:08.374Z,69.48
2023-05-22T00:20:18.361Z,69.48
2023-05-22T00:20:28.349Z,69.59
2023-05-22T00:20:38.714Z,69.48
2023-05-22T00:20:48.353Z,69.48
2023-05-22T00:20:58.352Z,69.48
2023-05-22T00:21:08.358Z,69.48
2023-05-22T00:21:18.362Z,69.38
2023-05-22T00:21:28.384Z,69.38
2023-05-22T00:21:38.364Z,69.38
2023-05-22T00:21:48.351Z,69.45
2023-05-22T00:21:58.369Z,69.45
2023-05-22T00:22:08.361Z,69.48
2023-05-22T00:22:18.357Z,69.48
2023-05-22T00:22:38.377Z,69.48
2023-05-22T00:22:48.359Z,69.48
2023-05-22T00:22:58.368Z,69.59
2023-05-22T00:23:08.365Z,69.59
2023-05-22T00:23:18.376Z,69.68
2023-05-22T00:23:28.362Z,69.68
2023-05-22T00:23:38.363Z,69.68
2023-05-22T00:23:48.388Z,69.68
2023-05-22T00:23:58.402Z,69.79
2023-05-22T00:24:08.376Z,69.79
2023-05-22T00:24:18.366Z,69.79
2023-05-22T00:24:28.367Z,69.79
2023-05-22T00:24:38.391Z,69.79
2023-05-22T00:24:58.382Z,69.79
2023-05-22T00:25:08.371Z,69.79
2023-05-22T00:25:18.370Z,69.79
2023-05-22T00:25:28.366Z,69.79
2023-05-22T00:25:38.387Z,69.79
2023-05-22T00:25:48.375Z,69.79
2023-05-22T00:25:58.370Z,69.89
2023-05-22T00:26:08.376Z,69.89
2023-05-22T00:26:18.389Z,69.99
2023-05-22T00:26:28.392Z,69.99
2023-05-22T00:26:48.378Z,70.09
2023-05-22T00:26:58.399Z,70.09
2023-05-22T00:27:08.378Z,70.09
2023-05-22T00:27:18.389Z,70.09
2023-05-22T00:27:28.374Z,70.19
2023-05-22T00:27:38.382Z,70.29
2023-05-22T00:27:48.380Z,70.29
2023-05-22T00:27:58.379Z,70.29
2023-05-22T00:28:08.383Z,70.39
2023-05-22T00:28:18.389Z,70.39
2023-05-22T00:28:28.387Z,70.29
2023-05-22T00:28:38.414Z,70.29
2023-05-22T00:28:48.388Z,70.29
2023-05-22T00:28:58.388Z,70.19
2023-05-22T00:29:08.386Z,70.19
2023-05-22T00:29:18.413Z,70.29
2023-05-22T00:29:28.396Z,70.29
2023-05-22T00:29:48.389Z,70.29
2023-05-22T00:29:58.408Z,70.29
2023-05-22T00:30:08.396Z,70.39
2023-05-22T00:30:18.391Z,70.39
2023-05-22T00:30:28.389Z,70.39
2023-05-22T00:30:38.683Z,70.49
2023-05-22T00:30:48.406Z,70.49
2023-05-22T00:30:58.394Z,70.49
2023-05-22T00:31:08.397Z,70.49
2023-05-22T00:31:18.413Z,70.49
2023-05-22T00:31:28.420Z,70.29
2023-05-22T00:31:38.397Z,70.19
2023-05-22T00:31:48.394Z,70.09
2023-05-22T00:31:58.428Z,70.09
2023-05-22T00:32:08.408Z,69.99
2023-05-22T00:32:18.414Z,69.99
2023-05-22T00:32:28.486Z,69.89
2023-05-22T00:32:38.444Z,69.79
2023-05-22T00:32:48.494Z,69.55
2023-05-22T00:33:08.452Z,69.45
2023-05-22T00:33:18.425Z,69.55
2023-05-22T00:33:28.411Z,69.55
2023-05-22T00:33:38.421Z,69.55
2023-05-22T00:33:48.458Z,69.55
2023-05-22T00:33:58.448Z,69.55
2023-05-22T00:34:08.459Z,69.55
2023-05-22T00:34:18.472Z,69.55
2023-05-22T00:34:28.488Z,69.55
2023-05-22T00:34:38.579Z,69.55
2023-05-22T00:34:48.452Z,69.65
2023-05-22T00:34:58.410Z,69.55
2023-05-22T00:35:18.414Z,69.65
2023-05-22T00:35:28.419Z,69.79
2023-05-22T00:35:38.425Z,69.89
2023-05-22T00:35:48.430Z,69.99
2023-05-22T00:35:58.421Z,69.99
2023-05-22T00:36:08.415Z,69.89
2023-05-22T00:36:18.427Z,69.89
2023-05-22T00:36:28.423Z,69.89
2023-05-22T00:36:38.420Z,69.89
2023-05-22T00:36:48.426Z,69.99
2023-05-22T00:36:58.429Z,69.99
2023-05-22T00:37:08.416Z,70.09
2023-05-22T00:37:18.422Z,70.09
2023-05-22T00:37:28.423Z,70.19
2023-05-22T00:37:38.423Z,70.29
2023-05-22T00:37:48.439Z,70.39
2023-05-22T00:37:58.430Z,70.39
2023-05-22T00:38:08.430Z,70.39
2023-05-22T00:38:18.426Z,70.49
2023-05-22T00:38:28.449Z,70.59
2023-05-22T00:38:38.429Z,70.69
2023-05-22T00:38:58.449Z,70.69
2023-05-22T00:39:08.427Z,70.69
2023-05-22T00:39:18.429Z,70.73
2023-05-22T00:39:28.432Z,70.83
2023-05-22T00:39:38.447Z,70.93
2023-05-22T00:39:48.435Z,71.03
2023-05-22T00:40:08.459Z,71.23
2023-05-22T00:40:18.458Z,71.33
2023-05-22T00:40:28.436Z,71.44
2023-05-22T00:40:38.635Z,71.44
2023-05-22T00:40:48.483Z,71.53
2023-05-22T00:40:58.440Z,71.53
2023-05-22T00:41:08.440Z,71.53
2023-05-22T00:41:28.438Z,71.44
2023-05-22T00:41:38.444Z,71.44
2023-05-22T00:41:48.447Z,71.44
2023-05-22T00:41:58.479Z,71.33
2023-05-22T00:42:08.450Z,71.44
2023-05-22T00:42:18.514Z,71.33
2023-05-22T00:42:28.451Z,71.33
2023-05-22T00:42:38.449Z,71.33
2023-05-22T00:42:48.445Z,71.33
2023-05-22T00:42:58.473Z,71.33
2023-05-22T00:43:08.834Z,71.23
2023-05-22T00:43:18.450Z,71.23
2023-05-22T00:43:28.465Z,71.13
2023-05-22T00:43:38.483Z,71.13
2023-05-22T00:43:48.451Z,71.23
2023-05-22T00:43:58.489Z,71.23
2023-05-22T00:44:18.457Z,71.23
2023-05-22T00:44:28.468Z,71.23
2023-05-22T00:44:38.498Z,71.23
2023-05-22T00:44:48.478Z,71.23
2023-05-22T00:44:58.493Z,71.13
2023-05-22T00:45:08.460Z,71.13
2023-05-22T00:45:18.461Z,71.13
2023-05-22T00:45:28.466Z,71.13
2023-05-22T00:45:48.467Z,71.13
2023-05-22T00:45:58.466Z,71.13
2023-05-22T00:46:08.511Z,71.03
2023-05-22T00:46:18.503Z,71.03
2023-05-22T00:46:28.508Z,71.03
2023-05-22T00:46:38.524Z,71.03
2023-05-22T00:46:48.540Z,70.93
2023-05-22T00:46:58.501Z,70.89
2023-05-22T00:47:18.472Z,70.89
2023-05-22T00:47:28.487Z,70.89
2023-05-22T00:47:38.506Z,70.89
2023-05-22T00:47:48.496Z,70.79
2023-05-22T00:47:58.590Z,70.79
2023-05-22T00:48:08.551Z,70.89
2023-05-22T00:48:18.481Z,70.89
2023-05-22T00:48:28.488Z,70.89
2023-05-22T00:48:48.477Z,70.89
2023-05-22T00:48:58.474Z,71.00
2023-05-22T00:49:08.476Z,71.03
2023-05-22T00:49:18.477Z,71.03
2023-05-22T00:49:28.473Z,71.13
2023-05-22T00:49:38.493Z,71.13
2023-05-22T00:49:48.492Z,71.23
2023-05-22T00:50:08.486Z,71.33
2023-05-22T00:50:18.482Z,71.33
2023-05-22T00:50:28.486Z,71.44
2023-05-22T00:50:38.842Z,71.53
2023-05-22T00:50:48.481Z,71.53
2023-05-22T00:50:58.491Z,71.64
2023-05-22T00:51:08.536Z,71.64
2023-05-22T00:51:18.561Z,71.64
2023-05-22T00:51:28.482Z,71.64
2023-05-22T00:51:38.484Z,71.73
2023-05-22T00:51:48.485Z,71.84
2023-05-22T00:51:58.488Z,71.84
2023-05-22T00:52:18.494Z,71.94
2023-05-22T00:52:28.488Z,71.94
2023-05-22T00:52:38.492Z,71.94
2023-05-22T00:52:48.487Z,71.94
2023-05-22T00:52:58.528Z,71.84
2023-05-22T00:53:08.516Z,71.94
2023-05-22T00:53:18.515Z,71.94
2023-05-22T00:53:28.507Z,71.94
2023-05-22T00:53:38.494Z,71.94
2023-05-22T00:53:48.498Z,72.04
2023-05-22T00:53:58.494Z,72.04
2023-05-22T00:54:18.489Z,71.94
2023-05-22T00:54:28.528Z,72.04
2023-05-22T00:54:38.501Z,72.04
2023-05-22T00:54:48.504Z,72.04
2023-05-22T00:54:58.497Z,72.04
2023-05-22T00:55:08.517Z,72.04
2023-05-22T00:55:18.506Z,72.04
2023-05-22T00:55:38.500Z,72.14
2023-05-22T00:55:48.537Z,72.14
2023-05-22T00:55:58.542Z,72.14
2023-05-22T00:56:08.523Z,72.14
2023-05-22T00:56:18.511Z,72.14
2023-05-22T00:56:28.509Z,72.14
2023-05-22T00:56:38.507Z,72.14
2023-05-22T00:56:48.504Z,72.24
2023-05-22T00:57:08.514Z,72.24
2023-05-22T00:57:18.510Z,72.14
2023-05-22T00:57:28.520Z,72.14
2023-05-22T00:57:38.513Z,72.24
2023-05-22T00:57:48.516Z,72.14
2023-05-22T00:57:58.523Z,72.14
2023-05-22T00:58:08.544Z,72.14
2023-05-22T00:58:18.520Z,72.14
2023-05-22T00:58:28.528Z,72.14
2023-05-22T00:58:38.511Z,72.14
2023-05-22T00:58:48.512Z,72.14
2023-05-22T00:59:08.606Z,72.04
2023-05-22T00:59:18.536Z,72.14
2023-05-22T00:59:28.526Z,72.14
2023-05-22T00:59:38.521Z,72.24
2023-05-22T00:59:48.530Z,72.24
2023-05-22T00:59:58.524Z,72.34
2023-05-22T01:00:18.529Z,72.24
2023-05-22T01:00:28.552Z,72.34
2023-05-22T01:00:38.753Z,72.34
2023-05-22T01:00:48.529Z,72.24
2023-05-22T01:00:58.530Z,72.34
2023-05-22T01:01:08.527Z,72.34
2023-05-22T01:01:18.581Z,72.44
2023-05-22T01:01:38.568Z,72.44
2023-05-22T01:01:48.581Z,72.54
2023-05-22T01:01:58.629Z,72.54
2023-05-22T01:02:08.612Z,72.54
2023-05-22T01:02:18.543Z,72.54
2023-05-22T01:02:28.530Z,72.54
2023-05-22T01:02:38.558Z,72.54
2023-05-22T01:02:48.605Z,72.54
2023-05-22T01:02:58.608Z,72.64
2023-05-22T01:03:18.660Z,72.64
2023-05-22T01:03:28.580Z,72.64
2023-05-22T01:03:38.580Z,72.78
2023-05-22T01:03:48.580Z,72.78
2023-05-22T01:03:58.654Z,72.88
2023-05-22T01:04:08.641Z,72.88
2023-05-22T01:04:18.700Z,72.78
2023-05-22T01:04:28.552Z,72.78
2023-05-22T01:04:38.542Z,72.88
2023-05-22T01:04:48.577Z,72.98
2023-05-22T01:04:58.552Z,72.98
2023-05-22T01:05:08.544Z,72.98
2023-05-22T01:05:18.561Z,72.88
2023-05-22T01:05:28.551Z,72.98
2023-05-22T01:05:38.549Z,72.98
2023-05-22T01:05:58.546Z,72.98
2023-05-22T01:06:08.542Z,72.98
2023-05-22T01:06:18.599Z,72.98
2023-05-22T01:06:28.551Z,72.88
2023-05-22T01:06:38.563Z,72.98
2023-05-22T01:06:48.545Z,72.98
2023-05-22T01:06:58.553Z,72.88
2023-05-22T01:07:18.554Z,72.88
2023-05-22T01:07:28.547Z,72.98
2023-05-22T01:07:38.592Z,72.85
2023-05-22T01:07:48.559Z,72.88
2023-05-22T01:07:58.547Z,72.88
2023-05-22T01:08:08.559Z,72.88
2023-05-22T01:08:18.551Z,72.88
2023-05-22T01:08:28.572Z,72.88
2023-05-22T01:08:38.552Z,72.88
2023-05-22T01:08:48.597Z,72.88
2023-05-22T01:08:58.556Z,72.75
2023-05-22T01:09:08.555Z,72.75
2023-05-22T01:09:18.564Z,72.78
2023-05-22T01:09:38.552Z,72.88
2023-05-22T01:09:48.596Z,72.78
2023-05-22T01:09:58.591Z,72.78
2023-05-22T01:10:08.554Z,72.78
2023-05-22T01:10:18.560Z,72.75
2023-05-22T01:10:28.553Z,72.78
2023-05-22T01:10:48.562Z,72.78
2023-05-22T01:10:58.555Z,72.78
2023-05-22T01:11:08.590Z,72.78
2023-05-22T01:11:18.558Z,72.78
2023-05-22T01:11:28.585Z,72.78
2023-05-22T01:11:38.567Z,72.75
2023-05-22T01:11:48.560Z,72.75
2023-05-22T01:11:58.560Z,72.75
2023-05-22T01:12:18.579Z,72.64
2023-05-22T01:12:28.565Z,72.54
2023-05-22T01:12:38.579Z,72.54
2023-05-22T01:12:48.567Z,72.54
2023-05-22T01:12:58.569Z,72.64
2023-05-22T01:13:08.566Z,72.64
2023-05-22T01:13:18.574Z,72.64
2023-05-22T01:13:28.565Z,72.54
2023-05-22T01:13:38.576Z,72.44
2023-05-22T01:13:48.586Z,72.44
2023-05-22T01:13:58.570Z,72.34
2023-05-22T01:14:08.572Z,72.44
2023-05-22T01:14:18.574Z,72.34
2023-05-22T01:14:28.571Z,72.34
2023-05-22T01:14:48.646Z,72.24
2023-05-22T01:14:58.597Z,72.24
2023-05-22T01:15:08.576Z,72.24
2023-05-22T01:15:18.577Z,72.14
2023-05-22T01:15:28.579Z,72.24
2023-05-22T01:15:38.583Z,72.24
2023-05-22T01:15:58.608Z,72.14
2023-05-22T01:16:08.635Z,72.14
2023-05-22T01:16:18.592Z,72.14
2023-05-22T01:16:28.647Z,72.14
2023-05-22T01:16:38.597Z,72.04
2023-05-22T01:16:48.664Z,72.04
2023-05-22T01:16:58.600Z,71.94
2023-05-22T01:17:08.609Z,71.84
2023-05-22T01:17:18.588Z,71.84
2023-05-22T01:17:28.679Z,71.84
2023-05-22T01:17:38.609Z,71.84
2023-05-22T01:17:48.695Z,71.73
2023-05-22T01:17:58.679Z,71.73
2023-05-22T01:18:18.593Z,71.84
2023-05-22T01:18:28.601Z,71.84
2023-05-22T01:18:38.593Z,71.84
2023-05-22T01:18:48.614Z,71.84
2023-05-22T01:18:58.664Z,71.94
2023-05-22T01:19:08.639Z,71.84
2023-05-22T01:19:18.631Z,71.84
2023-05-22T01:19:28.734Z,71.84
2023-05-22T01:19:38.599Z,71.84
2023-05-22T01:19:48.607Z,71.84
2023-05-22T01:20:08.606Z,71.94
2023-05-22T01:20:18.596Z,71.94
2023-05-22T01:20:28.611Z,71.94
2023-05-22T01:20:38.828Z,71.94
2023-05-22T01:20:48.827Z,71.94
2023-05-22T01:20:58.595Z,72.04
2023-05-22T01:21:18.612Z,72.04
2023-05-22T01:21:28.604Z,72.14
2023-05-22T01:21:38.616Z,72.04
2023-05-22T01:21:48.612Z,72.14
2023-05-22T01:21:58.613Z,72.14
2023-05-22T01:22:08.630Z,72.24
2023-05-22T01:22:18.607Z,72.14
2023-05-22T01:22:28.623Z,72.14
2023-05-22T01:22:38.623Z,72.24
2023-05-22T01:22:48.613Z,72.24
2023-05-22T01:22:58.788Z,72.24
2023-05-22T01:23:08.621Z,72.24
2023-05-22T01:23:18.632Z,72.34
2023-05-22T01:23:38.656Z,72.24
2023-05-22T01:23:48.624Z,72.24
2023-05-22T01:23:58.613Z,72.34
2023-05-22T01:24:08.632Z,72.34
2023-05-22T01:24:18.616Z,72.34
2023-05-22T01:24:28.616Z,72.34
2023-05-22T01:24:48.637Z,72.24
2023-05-22T01:24:58.635Z,72.24
2023-05-22T01:25:08.619Z,72.24
2023-05-22T01:25:18.618Z,72.24
2023-05-22T01:25:28.658Z,72.34
2023-05-22T01:25:38.623Z,72.34
2023-05-22T01:25:48.645Z,72.24
2023-05-22T01:26:08.647Z,72.34
2023-05-22T01:26:18.621Z,72.44
2023-05-22T01:26:28.628Z,72.34
2023-05-22T01:26:38.624Z,72.38
2023-05-22T01:26:48.624Z,72.44
2023-05-22T01:26:58.653Z,72.44
2023-05-22T01:27:18.625Z,72.44
2023-05-22T01:27:28.624Z,72.48
2023-05-22T01:27:38.623Z,72.34
2023-05-22T01:27:48.632Z,72.34
2023-05-22T01:27:58.637Z,72.34
2023-05-22T01:28:08.628Z,72.34
2023-05-22T01:28:18.629Z,72.24
2023-05-22T01:28:28.634Z,72.24
2023-05-22T01:28:38.640Z,72.24
2023-05-22T01:28:48.643Z,72.24
2023-05-22T01:28:58.648Z,72.24
2023-05-22T01:29:08.632Z,72.24
2023-05-22T01:29:18.639Z,72.24
2023-05-22T01:29:28.640Z,72.24
2023-05-22T01:29:48.642Z,72.24
2023-05-22T01:29:58.673Z,72.24
2023-05-22T01:30:08.641Z,72.24
2023-05-22T01:30:18.646Z,72.24
2023-05-22T01:30:28.656Z,72.24
2023-05-22T01:30:38.773Z,72.24
2023-05-22T01:30:48.672Z,72.24
2023-05-22T01:31:08.641Z,72.14
2023-05-22T01:31:18.675Z,71.94
2023-05-22T01:31:28.667Z,71.84
2023-05-22T01:31:38.645Z,71.73
2023-05-22T01:31:48.642Z,71.73
2023-05-22T01:31:58.642Z,71.73
2023-05-22T01:32:08.648Z,71.73
2023-05-22T01:32:18.665Z,71.73
2023-05-22T01:32:28.747Z,71.73
2023-05-22T01:32:38.772Z,71.64
2023-05-22T01:32:58.748Z,71.64
2023-05-22T01:33:08.726Z,71.64
2023-05-22T01:33:18.805Z,71.64
2023-05-22T01:33:28.835Z,71.64
2023-05-22T01:33:38.717Z,71.64
2023-05-22T01:33:48.804Z,71.64
2023-05-22T01:33:58.800Z,71.64
2023-05-22T01:34:08.662Z,71.53
2023-05-22T01:34:18.684Z,71.64
2023-05-22T01:34:38.665Z,71.64
2023-05-22T01:34:48.678Z,71.64
2023-05-22T01:34:58.670Z,71.73
2023-05-22T01:35:08.656Z,71.73
2023-05-22T01:35:18.666Z,71.73
2023-05-22T01:35:28.662Z,71.73
2023-05-22T01:35:38.673Z,71.84
2023-05-22T01:35:48.679Z,71.94
2023-05-22T01:36:08.671Z,71.84
2023-05-22T01:36:18.665Z,71.94
2023-05-22T01:36:28.677Z,71.94
2023-05-22T01:36:38.665Z,71.94
2023-05-22T01:36:48.669Z,71.94
2023-05-22T01:36:58.692Z,72.04
2023-05-22T01:37:18.668Z,71.94
2023-05-22T01:37:28.674Z,72.04
2023-05-22T01:37:38.699Z,71.94
2023-05-22T01:37:48.681Z,72.04
2023-05-22T01:37:58.682Z,72.04
2023-05-22T01:38:08.672Z,71.94
2023-05-22T01:38:18.671Z,71.94
2023-05-22T01:38:28.671Z,72.04
2023-05-22T01:38:48.703Z,71.94
2023-05-22T01:38:58.701Z,72.04
2023-05-22T01:39:08.681Z,72.04
2023-05-22T01:39:18.682Z,71.94
2023-05-22T01:39:28.672Z,71.94
2023-05-22T01:39:38.677Z,71.94
2023-05-22T01:39:48.689Z,72.04
2023-05-22T01:39:58.697Z,72.04
2023-05-22T01:40:08.678Z,72.04
2023-05-22T01:40:18.686Z,72.04
2023-05-22T01:40:28.688Z,72.04
2023-05-22T01:40:48.689Z,72.04
2023-05-22T01:40:58.691Z,72.04
2023-05-22T01:41:08.698Z,71.94
2023-05-22T01:41:18.692Z,71.94
2023-05-22T01:41:28.687Z,71.94
2023-05-22T01:41:38.686Z,71.94
2023-05-22T01:41:48.703Z,71.94
2023-05-22T01:41:58.690Z,71.94
2023-05-22T01:42:08.694Z,72.04
2023-05-22T01:42:18.710Z,72.04
2023-05-22T01:42:28.689Z,72.04
2023-05-22T01:42:38.690Z,72.04
2023-05-22T01:42:58.697Z,72.04
2023-05-22T01:43:08.697Z,72.07
2023-05-22T01:43:18.696Z,72.17
2023-05-22T01:43:28.709Z,72.17
2023-05-22T01:43:38.693Z,72.17
2023-05-22T01:43:48.693Z,72.27
2023-05-22T01:43:58.702Z,72.27
2023-05-22T01:44:08.693Z,72.17
2023-05-22T01:44:28.695Z,72.07
2023-05-22T01:44:38.708Z,71.97
2023-05-22T01:44:48.695Z,71.94
2023-05-22T01:44:58.732Z,71.94
2023-05-22T01:45:08.736Z,71.84
2023-05-22T01:45:18.712Z,71.73
2023-05-22T01:45:28.755Z,71.73
2023-05-22T01:45:38.746Z,71.64
2023-05-22T01:45:48.735Z,71.73
2023-05-22T01:46:08.785Z,71.73
2023-05-22T01:46:18.829Z,71.84
2023-05-22T01:46:28.759Z,71.84
2023-05-22T01:46:38.708Z,71.94
2023-05-22T01:46:48.722Z,72.04
2023-05-22T01:46:58.704Z,72.04
2023-05-22T01:47:08.706Z,72.04
2023-05-22T01:47:18.707Z,72.04
2023-05-22T01:47:28.762Z,72.14
2023-05-22T01:47:38.761Z,72.14
2023-05-22T01:47:48.817Z,72.17
2023-05-22T01:47:58.824Z,72.17
2023-05-22T01:48:08.759Z,72.17
2023-05-22T01:48:18.708Z,72.17
2023-05-22T01:48:28.709Z,72.07
2023-05-22T01:48:38.729Z,72.07
2023-05-22T01:48:48.715Z,72.17
2023-05-22T01:48:58.728Z,72.17
2023-05-22T01:49:08.711Z,72.17
2023-05-22T01:49:18.719Z,72.17
2023-05-22T01:49:28.716Z,72.27
2023-05-22T01:49:38.728Z,72.27
2023-05-22T01:49:48.723Z,72.27
2023-05-22T01:49:58.714Z,72.27
2023-05-22T01:50:08.797Z,72.27
2023-05-22T01:50:18.726Z,72.27
2023-05-22T01:50:28.732Z,72.38
2023-05-22T01:50:38.936Z,72.27
2023-05-22T01:50:48.735Z,72.17
2023-05-22T01:50:58.725Z,72.17
2023-05-22T01:51:18.723Z,72.17
2023-05-22T01:51:28.727Z,72.17
2023-05-22T01:51:38.723Z,72.17
2023-05-22T01:51:48.739Z,72.17
2023-05-22T01:51:58.747Z,72.17
2023-05-22T01:52:08.747Z,72.27
2023-05-22T01:52:18.731Z,72.17
2023-05-22T01:52:28.734Z,72.17
2023-05-22T01:52:38.735Z,72.17
2023-05-22T01:52:48.732Z,72.17
2023-05-22T01:52:58.736Z,72.27
2023-05-22T01:53:08.742Z,72.27
2023-05-22T01:53:18.749Z,72.38
2023-05-22T01:53:28.753Z,72.38
2023-05-22T01:53:38.759Z,72.48
2023-05-22T01:53:48.742Z,72.48
2023-05-22T01:53:58.757Z,72.48
2023-05-22T01:54:08.750Z,72.48
2023-05-22T01:54:18.746Z,72.48
2023-05-22T01:54:28.751Z,72.48
2023-05-22T01:54:48.758Z,72.58
2023-05-22T01:54:58.752Z,72.48
2023-05-22T01:55:08.760Z,72.58
2023-05-22T01:55:18.746Z,72.58
2023-05-22T01:55:28.747Z,72.58
2023-05-22T01:55:38.767Z,72.68
2023-05-22T01:55:48.750Z,72.68
2023-05-22T01:55:58.752Z,72.68
2023-05-22T01:56:18.753Z,72.68
2023-05-22T01:56:28.770Z,72.68
2023-05-22T01:56:38.778Z,72.58
2023-05-22T01:56:48.753Z,72.68
2023-05-22T01:56:58.755Z,72.68
2023-05-22T01:57:08.758Z,72.68
2023-05-22T01:57:28.785Z,72.68
2023-05-22T01:57:38.759Z,72.78
2023-05-22T01:57:48.759Z,72.78
2023-05-22T01:57:58.757Z,72.78
2023-05-22T01:58:08.772Z,72.88
2023-05-22T01:58:18.768Z,72.91
2023-05-22T01:58:38.764Z,72.98
2023-05-22T01:58:48.765Z,72.91
2023-05-22T01:58:58.761Z,72.91
2023-05-22T01:59:08.767Z,72.91
2023-05-22T01:59:18.801Z,73.02
2023-05-22T01:59:28.771Z,73.02
2023-05-22T01:59:38.767Z,73.02
2023-05-22T01:59:48.766Z,73.02
2023-05-22T01:59:58.780Z,73.02
2023-05-22T02:00:08.807Z,73.02
2023-05-22T02:00:18.807Z,72.98
2023-05-22T02:00:28.790Z,72.91
2023-05-22T02:00:48.779Z,73.02
2023-05-22T02:00:58.821Z,73.02
2023-05-22T02:01:09.208Z,73.02
2023-05-22T02:01:18.787Z,73.02
2023-05-22T02:01:28.792Z,73.02
2023-05-22T02:01:38.818Z,73.02
2023-05-22T02:01:48.868Z,73.02
2023-05-22T02:01:58.820Z,73.02
2023-05-22T02:02:08.805Z,72.91
2023-05-22T02:02:18.801Z,72.91
2023-05-22T02:02:38.868Z,72.91
2023-05-22T02:02:48.916Z,73.02
2023-05-22T02:02:58.885Z,73.11
2023-05-22T02:03:08.923Z,73.11
2023-05-22T02:03:18.912Z,73.22
2023-05-22T02:03:28.936Z,73.22
2023-05-22T02:03:38.872Z,73.22
2023-05-22T02:03:48.819Z,73.22
2023-05-22T02:03:58.788Z,73.22
2023-05-22T02:04:08.798Z,73.22
2023-05-22T02:04:18.793Z,73.22
2023-05-22T02:04:28.786Z,73.22
2023-05-22T02:04:48.783Z,73.22
2023-05-22T02:04:58.840Z,73.32
2023-05-22T02:05:08.841Z,73.32
2023-05-22T02:05:18.800Z,73.32
2023-05-22T02:05:28.817Z,73.32
2023-05-22T02:05:38.810Z,73.32
2023-05-22T02:05:48.792Z,73.32
2023-05-22T02:05:58.801Z,73.42
2023-05-22T02:06:18.801Z,73.42
2023-05-22T02:06:28.814Z,73.42
2023-05-22T02:06:38.793Z,73.42
2023-05-22T02:06:48.796Z,73.42
2023-05-22T02:06:58.810Z,73.42
2023-05-22T02:07:10.091Z,73.42
2023-05-22T02:07:18.808Z,73.42
2023-05-22T02:07:28.808Z,73.42
2023-05-22T02:07:38.817Z,73.42
2023-05-22T02:07:48.803Z,73.52
2023-05-22T02:08:08.793Z,73.32
2023-05-22T02:08:18.815Z,73.32
2023-05-22T02:08:28.799Z,73.22
2023-05-22T02:08:38.821Z,73.22
2023-05-22T02:08:48.801Z,73.11
2023-05-22T02:08:58.799Z,73.02
2023-05-22T02:09:08.802Z,73.02
2023-05-22T02:09:18.804Z,73.02
2023-05-22T02:09:28.806Z,72.91
2023-05-22T02:09:48.813Z,73.02
2023-05-22T02:09:58.804Z,73.02
2023-05-22T02:10:08.831Z,72.91
2023-05-22T02:10:18.810Z,73.02
2023-05-22T02:10:28.809Z,73.02
2023-05-22T02:10:39.009Z,73.02
2023-05-22T02:10:48.810Z,73.02
2023-05-22T02:10:58.815Z,73.02
2023-05-22T02:11:18.849Z,73.11
2023-05-22T02:11:28.814Z,73.11
2023-05-22T02:11:38.837Z,73.11
2023-05-22T02:11:48.818Z,73.11
2023-05-22T02:11:58.817Z,73.11
2023-05-22T02:12:08.822Z,73.11
2023-05-22T02:12:28.822Z,73.02
2023-05-22T02:12:38.834Z,73.11
2023-05-22T02:12:48.828Z,73.02
2023-05-22T02:12:58.827Z,73.02
2023-05-22T02:13:08.816Z,73.02
2023-05-22T02:13:18.821Z,73.02
2023-05-22T02:13:28.835Z,73.02
2023-05-22T02:13:38.843Z,72.91
2023-05-22T02:13:48.823Z,72.91
2023-05-22T02:13:58.829Z,72.91
2023-05-22T02:14:08.852Z,72.91
2023-05-22T02:14:28.834Z,72.91
2023-05-22T02:14:38.844Z,72.91
2023-05-22T02:14:48.830Z,72.91
2023-05-22T02:14:58.837Z,72.91
2023-05-22T02:15:08.842Z,72.91
2023-05-22T02:15:18.829Z,72.91
2023-05-22T02:15:28.877Z,72.91
2023-05-22T02:15:38.951Z,72.81
2023-05-22T02:15:48.926Z,72.91
2023-05-22T02:15:58.846Z,72.91
2023-05-22T02:16:18.873Z,72.81
2023-05-22T02:16:28.847Z,72.91
2023-05-22T02:16:38.847Z,72.91
2023-05-22T02:16:48.890Z,72.91
2023-05-22T02:16:58.852Z,72.91
2023-05-22T02:17:08.867Z,72.91
2023-05-22T02:17:18.845Z,73.02
2023-05-22T02:17:28.899Z,73.02
2023-05-22T02:17:38.878Z,73.02
2023-05-22T02:17:58.894Z,73.02
2023-05-22T02:18:08.902Z,73.02
2023-05-22T02:18:18.852Z,73.11
2023-05-22T02:18:28.842Z,73.11
2023-05-22T02:18:38.855Z,73.02
2023-05-22T02:18:48.918Z,73.05
2023-05-22T02:18:58.857Z,73.05
2023-05-22T02:19:18.900Z,73.05
2023-05-22T02:19:28.912Z,73.05
2023-05-22T02:19:38.842Z,73.15
2023-05-22T02:19:48.877Z,73.15
2023-05-22T02:19:58.844Z,73.25
2023-05-22T02:20:08.856Z,73.25
2023-05-22T02:20:18.844Z,73.25
2023-05-22T02:20:28.849Z,73.15
2023-05-22T02:20:39.081Z,73.25
2023-05-22T02:20:48.878Z,73.25
2023-05-22T02:20:58.850Z,73.25
2023-05-22T02:21:18.855Z,73.15
2023-05-22T02:21:28.865Z,73.15
2023-05-22T02:21:38.858Z,73.15
2023-05-22T02:21:48.852Z,73.15
2023-05-22T02:21:58.854Z,73.05